Mc Cabe, Montana
Current Conditions -  °F | °C
As of 11:27 AM on Monday 22 Dec 2014 (Local Time) from KOLF Reporting Station
Light Snow Light Snow  
Wind Chill: 20°   Ceiling: 2000
Heat Index: 29°   Visibility: 1mi
Dew Point: 23°   Wind: 10mph
Humidity: 78%   Direction: 320°NW
Pressure: 29.71"   Gusts: NA
Location:  48.2801°N, 104.9441°W
Report Text: KOLF 221827Z AUTO 32009KT 1SM -SN VV020 M02/M05 A2971 RMK AO2 P0000 T10171050
Loading
Personal Weather Stations






























Interactive Weather Map New forecast layout! Learn more

10-Day Weather Forecast

Advertisements
Track Severe Weather on mobile